createdAt,value
2018-07-08T00:00:31.997Z,0
2018-07-08T00:01:31.445Z,0
2018-07-08T00:02:31.742Z,0
2018-07-08T00:03:31.421Z,0
2018-07-08T00:04:31.411Z,0
2018-07-08T00:05:31.921Z,0
2018-07-08T00:06:31.642Z,0
2018-07-08T00:07:31.895Z,0
2018-07-08T00:08:31.886Z,0
2018-07-08T00:09:31.351Z,0
2018-07-08T00:10:31.066Z,0
2018-07-08T00:11:31.854Z,0
2018-07-08T00:12:31.831Z,0
2018-07-08T00:13:31.558Z,0
2018-07-08T00:14:31.543Z,0
2018-07-08T00:15:31.271Z,0
2018-07-08T00:16:31.794Z,0
2018-07-08T00:17:31.504Z,0
2018-07-08T00:18:31.501Z,0
2018-07-08T00:19:31.223Z,0
2018-07-08T00:20:31.731Z,0
2018-07-08T00:21:31.195Z,0
2018-07-08T00:22:31.185Z,0
2018-07-08T00:23:31.433Z,0
2018-07-08T00:24:31.694Z,0
2018-07-08T00:25:31.675Z,0
2018-07-08T00:26:30.881Z,0
2018-07-08T00:27:31.478Z,0
2018-07-08T00:28:30.855Z,0
2018-07-08T00:29:31.092Z,0
2018-07-08T00:30:31.609Z,0
2018-07-08T00:31:31.337Z,0
2018-07-08T00:32:31.054Z,0
2018-07-08T00:33:31.309Z,0
2018-07-08T00:34:31.288Z,0
2018-07-08T00:35:31.017Z,0
2018-07-08T00:36:31.263Z,0
2018-07-08T00:37:31.524Z,0
2018-07-08T00:38:31.237Z,0
2018-07-08T00:39:30.703Z,0
2018-07-08T00:40:30.957Z,0
2018-07-08T00:41:31.210Z,0
2018-07-08T00:42:30.931Z,0
2018-07-08T00:43:31.180Z,0
2018-07-08T00:44:31.428Z,0
2018-07-08T00:45:31.158Z,0
2018-07-08T00:46:30.883Z,0
2018-07-08T00:47:31.132Z,0
2018-07-08T00:48:31.114Z,0
2018-07-08T00:49:30.838Z,0
2018-07-08T00:50:31.366Z,0
2018-07-08T00:51:31.088Z,0
2018-07-08T00:52:30.805Z,0
2018-07-08T00:53:31.318Z,0
2018-07-08T00:54:31.086Z,0
2018-07-08T00:55:30.763Z,0
2018-07-08T00:56:31.022Z,0
2018-07-08T00:57:31.262Z,0
2018-07-08T00:58:30.994Z,0
2018-07-08T00:59:31.239Z,0
2018-07-08T01:00:30.962Z,0
2018-07-08T01:01:31.226Z,0
2018-07-08T01:02:30.937Z,0
2018-07-08T01:03:30.662Z,0
2018-07-08T01:04:31.170Z,0
2018-07-08T01:05:30.896Z,0
2018-07-08T01:06:30.879Z,0
2018-07-08T01:07:30.612Z,0
2018-07-08T01:08:30.343Z,0
2018-07-08T01:09:30.580Z,0
2018-07-08T01:10:30.829Z,0
2018-07-08T01:11:30.833Z,0
2018-07-08T01:12:30.812Z,0
2018-07-08T01:13:30.539Z,0
2018-07-08T01:14:31.043Z,0
2018-07-08T01:15:31.039Z,0
2018-07-08T01:16:30.753Z,0
2018-07-08T01:17:31.005Z,0
2018-07-08T01:18:30.746Z,0
2018-07-08T01:19:30.449Z,0
2018-07-08T01:20:30.701Z,0
2018-07-08T01:21:30.947Z,0
2018-07-08T01:22:30.149Z,0
2018-07-08T01:23:30.397Z,0
2018-07-08T01:24:30.119Z,0
2018-07-08T01:25:30.375Z,0
2018-07-08T01:26:30.957Z,0
2018-07-08T01:27:30.618Z,0
2018-07-08T01:28:30.864Z,0
2018-07-08T01:29:30.592Z,0
2018-07-08T01:30:30.300Z,0
2018-07-08T01:31:30.555Z,0
2018-07-08T01:32:30.807Z,0
2018-07-08T01:33:30.268Z,0
2018-07-08T01:34:30.792Z,0
2018-07-08T01:35:29.972Z,0
2018-07-08T01:36:30.492Z,0
2018-07-08T01:37:30.466Z,0
2018-07-08T01:38:30.195Z,0
2018-07-08T01:39:30.187Z,0
2018-07-08T01:40:30.706Z,0
2018-07-08T01:41:29.894Z,0
2018-07-08T01:42:30.433Z,0
2018-07-08T01:43:30.393Z,0
2018-07-08T01:44:31.090Z,0
2018-07-08T01:45:30.116Z,0
2018-07-08T01:46:30.557Z,0
2018-07-08T01:47:30.339Z,0
2018-07-08T01:48:30.336Z,0
2018-07-08T01:49:30.591Z,0
2018-07-08T01:50:30.306Z,0
2018-07-08T01:51:30.027Z,0
2018-07-08T01:52:30.284Z,0
2018-07-08T01:53:30.268Z,0
2018-07-08T01:54:30.507Z,0
2018-07-08T01:55:30.505Z,0
2018-07-08T01:56:30.232Z,0
2018-07-08T01:57:30.209Z,0
2018-07-08T01:58:30.195Z,0
2018-07-08T01:59:30.230Z,0
2018-07-08T02:00:30.166Z,0
2018-07-08T02:01:30.158Z,0
2018-07-08T02:02:29.878Z,0
2018-07-08T02:03:30.390Z,0
2018-07-08T02:04:29.582Z,0
2018-07-08T02:05:30.375Z,0
2018-07-08T02:06:30.096Z,0
2018-07-08T02:07:30.349Z,0
2018-07-08T02:08:29.800Z,0
2018-07-08T02:09:30.041Z,0
2018-07-08T02:10:29.764Z,0
2018-07-08T02:11:30.029Z,0
2018-07-08T02:12:30.274Z,0
2018-07-08T02:13:30.260Z,0
2018-07-08T02:14:29.711Z,0
2018-07-08T02:15:29.958Z,0
2018-07-08T02:16:29.948Z,0
2018-07-08T02:17:29.935Z,0
2018-07-08T02:18:30.181Z,0
2018-07-08T02:19:29.645Z,0
2018-07-08T02:20:29.626Z,0
2018-07-08T02:21:29.881Z,0
2018-07-08T02:22:30.138Z,0
2018-07-08T02:23:30.161Z,0
2018-07-08T02:24:29.839Z,0
2018-07-08T02:25:29.561Z,0
2018-07-08T02:26:30.072Z,0
2018-07-08T02:27:30.057Z,0
2018-07-08T02:28:30.044Z,0
2018-07-08T02:29:29.502Z,0
2018-07-08T02:30:30.039Z,0
2018-07-08T02:31:29.499Z,0
2018-07-08T02:32:29.727Z,0
2018-07-08T02:33:29.984Z,0
2018-07-08T02:34:29.984Z,0
2018-07-08T02:35:29.950Z,0
2018-07-08T02:36:29.929Z,0
2018-07-08T02:37:29.923Z,0
2018-07-08T02:38:29.918Z,0
2018-07-08T02:39:29.638Z,0
2018-07-08T02:40:29.619Z,0
2018-07-08T02:41:29.342Z,0
2018-07-08T02:42:29.852Z,0
2018-07-08T02:43:29.570Z,4
2018-07-08T02:44:29.558Z,4
2018-07-08T02:45:29.820Z,0
2018-07-08T02:46:29.534Z,0
2018-07-08T02:47:29.781Z,4
2018-07-08T02:48:29.507Z,4
2018-07-08T02:49:29.233Z,0
2018-07-08T02:50:29.477Z,4
2018-07-08T02:51:29.463Z,4
2018-07-08T02:52:29.458Z,4
2018-07-08T02:53:29.699Z,4
2018-07-08T02:54:29.201Z,4
2018-07-08T02:55:29.673Z,8
2018-07-08T02:56:29.143Z,8
2018-07-08T02:57:29.641Z,8
2018-07-08T02:58:29.377Z,12
2018-07-08T02:59:29.620Z,12
2018-07-08T03:00:29.368Z,12
2018-07-08T03:01:29.600Z,12
2018-07-08T03:02:29.304Z,16
2018-07-08T03:03:29.558Z,16
2018-07-08T03:04:29.024Z,20
2018-07-08T03:05:29.281Z,24
2018-07-08T03:06:29.517Z,24
2018-07-08T03:07:29.252Z,32
2018-07-08T03:08:29.479Z,32
2018-07-08T03:09:29.222Z,36
2018-07-08T03:10:29.457Z,40
2018-07-08T03:11:28.911Z,44
2018-07-08T03:12:29.425Z,48
2018-07-08T03:13:29.415Z,52
2018-07-08T03:14:28.869Z,60
2018-07-08T03:15:29.265Z,64
2018-07-08T03:16:29.105Z,68
2018-07-08T03:17:29.090Z,72
2018-07-08T03:18:29.075Z,80
2018-07-08T03:19:29.054Z,88
2018-07-08T03:20:28.777Z,96
2018-07-08T03:21:29.293Z,104
2018-07-08T03:22:29.013Z,112
2018-07-08T03:23:29.257Z,120
2018-07-08T03:24:28.727Z,128
2018-07-08T03:25:28.904Z,140
2018-07-08T03:26:28.959Z,148
2018-07-08T03:27:28.935Z,156
2018-07-08T03:28:28.918Z,172
2018-07-08T03:29:28.649Z,180
2018-07-08T03:30:29.170Z,192
2018-07-08T03:31:29.154Z,200
2018-07-08T03:32:28.870Z,216
2018-07-08T03:33:29.012Z,224
2018-07-08T03:34:28.572Z,236
2018-07-08T03:35:28.828Z,252
2018-07-08T03:36:28.551Z,260
2018-07-08T03:37:29.065Z,276
2018-07-08T03:38:28.248Z,292
2018-07-08T03:39:29.035Z,304
2018-07-08T03:40:29.061Z,320
2018-07-08T03:41:28.474Z,332
2018-07-08T03:42:28.729Z,348
2018-07-08T03:43:28.712Z,360
2018-07-08T03:44:28.425Z,372
2018-07-08T03:45:28.953Z,388
2018-07-08T03:46:29.130Z,408
2018-07-08T03:47:28.654Z,420
2018-07-08T03:48:28.912Z,432
2018-07-08T03:49:28.622Z,448
2018-07-08T03:50:28.075Z,464
2018-07-08T03:51:28.591Z,476
2018-07-08T03:52:28.585Z,492
2018-07-08T03:53:28.820Z,504
2018-07-08T03:54:28.544Z,520
2018-07-08T03:55:28.796Z,532
2018-07-08T03:56:28.790Z,548
2018-07-08T03:57:28.255Z,564
2018-07-08T03:58:28.225Z,576
2018-07-08T03:59:28.476Z,592
2018-07-08T04:00:28.463Z,604
2018-07-08T04:01:28.181Z,620
2018-07-08T04:02:28.697Z,632
2018-07-08T04:03:28.683Z,648
2018-07-08T04:04:28.397Z,656
2018-07-08T04:05:28.649Z,672
2018-07-08T04:06:28.644Z,688
2018-07-08T04:07:28.360Z,700
2018-07-08T04:08:28.612Z,712
2018-07-08T04:09:28.594Z,724
2018-07-08T04:10:28.055Z,740
2018-07-08T04:11:28.296Z,752
2018-07-08T04:12:28.290Z,768
2018-07-08T04:13:28.278Z,780
2018-07-08T04:14:28.305Z,792
2018-07-08T04:15:27.986Z,804
2018-07-08T04:16:28.486Z,816
2018-07-08T04:17:28.489Z,832
2018-07-08T04:18:28.202Z,844
2018-07-08T04:19:27.655Z,852
2018-07-08T04:20:27.911Z,868
2018-07-08T04:21:27.628Z,876
2018-07-08T04:22:28.404Z,888
2018-07-08T04:23:28.126Z,896
2018-07-08T04:24:27.586Z,908
2018-07-08T04:25:28.368Z,920
2018-07-08T04:26:28.351Z,928
2018-07-08T04:27:28.075Z,940
2018-07-08T04:28:28.058Z,952
2018-07-08T04:29:28.042Z,964
2018-07-08T04:30:27.923Z,976
2018-07-08T04:31:27.747Z,984
2018-07-08T04:32:28.003Z,992
2018-07-08T04:33:27.982Z,996
2018-07-08T04:34:27.964Z,1008
2018-07-08T04:35:28.220Z,1020
2018-07-08T04:36:28.212Z,1028
2018-07-08T04:37:27.925Z,1036
2018-07-08T04:38:27.656Z,1048
2018-07-08T04:39:28.154Z,1052
2018-07-08T04:40:28.142Z,1064
2018-07-08T04:41:28.126Z,1072
2018-07-08T04:42:27.580Z,1080
2018-07-08T04:43:28.113Z,1084
2018-07-08T04:44:27.819Z,1096
2018-07-08T04:45:27.554Z,1100
2018-07-08T04:46:27.796Z,1108
2018-07-08T04:47:27.784Z,1116
2018-07-08T04:48:28.039Z,1128
2018-07-08T04:49:28.006Z,1136
2018-07-08T04:50:27.473Z,1144
2018-07-08T04:51:27.738Z,1148
2018-07-08T04:52:27.447Z,1152
2018-07-08T04:53:27.954Z,1160
2018-07-08T04:54:27.412Z,1172
2018-07-08T04:55:27.138Z,1176
2018-07-08T04:56:27.384Z,1184
2018-07-08T04:57:27.374Z,1192
2018-07-08T04:58:27.095Z,1200
2018-07-08T04:59:27.878Z,1208
2018-07-08T05:00:27.330Z,1216
2018-07-08T05:01:27.589Z,1220
2018-07-08T05:02:27.314Z,1232
2018-07-08T05:03:27.814Z,1236
2018-07-08T05:04:27.850Z,1244
2018-07-08T05:05:27.805Z,1252
2018-07-08T05:06:27.873Z,1256
2018-07-08T05:07:27.240Z,1264
2018-07-08T05:08:27.503Z,1268
2018-07-08T05:09:27.477Z,1276
2018-07-08T05:10:27.459Z,1284
2018-07-08T05:11:27.715Z,1292
2018-07-08T05:12:27.168Z,1300
2018-07-08T05:13:27.431Z,1308
2018-07-08T05:14:27.426Z,1320
2018-07-08T05:15:27.392Z,1320
2018-07-08T05:16:26.846Z,1332
2018-07-08T05:17:27.624Z,1336
2018-07-08T05:18:27.611Z,1340
2018-07-08T05:19:27.063Z,1348
2018-07-08T05:20:27.788Z,1360
2018-07-08T05:21:27.304Z,1364
2018-07-08T05:22:27.559Z,1372
2018-07-08T05:23:27.549Z,1384
2018-07-08T05:24:27.263Z,1396
2018-07-08T05:25:27.252Z,1404
2018-07-08T05:26:27.238Z,1416
2018-07-08T05:27:27.491Z,1420
2018-07-08T05:28:27.212Z,1424
2018-07-08T05:29:27.457Z,1432
2018-07-08T05:30:27.199Z,1432
2018-07-08T05:31:27.167Z,1436
2018-07-08T05:32:27.426Z,1440
2018-07-08T05:33:27.419Z,1444
2018-07-08T05:34:27.137Z,1448
2018-07-08T05:35:26.858Z,1464
2018-07-08T05:36:27.101Z,1488
2018-07-08T05:37:27.093Z,1492
2018-07-08T05:38:26.808Z,1504
2018-07-08T05:39:26.795Z,1516
2018-07-08T05:40:26.523Z,1532
2018-07-08T05:41:27.039Z,1540
2018-07-08T05:42:27.023Z,1544
2018-07-08T05:43:27.007Z,1556
2018-07-08T05:44:27.263Z,1564
2018-07-08T05:45:26.992Z,1560
2018-07-08T05:46:27.435Z,1572
2018-07-08T05:47:26.957Z,1580
2018-07-08T05:48:26.682Z,1596
2018-07-08T05:49:26.670Z,1608
2018-07-08T05:50:27.363Z,1604
2018-07-08T05:51:27.176Z,1624
2018-07-08T05:52:27.162Z,1640
2018-07-08T05:53:26.874Z,1660
2018-07-08T05:54:26.864Z,1680
2018-07-08T05:55:26.587Z,1676
2018-07-08T05:56:26.855Z,1668
2018-07-08T05:57:26.826Z,1672
2018-07-08T05:58:27.069Z,1684
2018-07-08T05:59:26.806Z,1704
2018-07-08T06:00:27.048Z,1696
2018-07-08T06:01:26.512Z,1700
2018-07-08T06:02:26.756Z,1724
2018-07-08T06:03:27.005Z,1756
2018-07-08T06:04:27.006Z,1768
2018-07-08T06:05:26.726Z,1756
2018-07-08T06:06:26.987Z,1764
2018-07-08T06:07:26.697Z,1800
2018-07-08T06:08:26.945Z,1876
2018-07-08T06:09:26.665Z,1976
2018-07-08T06:10:26.656Z,1960
2018-07-08T06:11:26.637Z,1904
2018-07-08T06:12:26.625Z,2156
2018-07-08T06:13:26.629Z,1884
2018-07-08T06:14:26.600Z,1924
2018-07-08T06:15:27.014Z,1976
2018-07-08T06:16:26.588Z,2088
2018-07-08T06:17:26.575Z,2464
2018-07-08T06:18:26.829Z,2324
2018-07-08T06:19:26.552Z,2096
2018-07-08T06:20:26.272Z,2444
2018-07-08T06:21:26.255Z,7596
2018-07-08T06:22:26.238Z,11868
2018-07-08T06:23:26.490Z,7352
2018-07-08T06:24:26.482Z,2792
2018-07-08T06:25:25.938Z,4788
2018-07-08T06:26:26.185Z,13604
2018-07-08T06:27:26.440Z,9212
2018-07-08T06:28:26.436Z,2788
2018-07-08T06:29:25.894Z,2816
2018-07-08T06:30:26.144Z,2636
2018-07-08T06:31:26.395Z,2480
2018-07-08T06:32:26.387Z,2764
2018-07-08T06:33:26.638Z,2876
2018-07-08T06:34:26.097Z,3540
2018-07-08T06:35:26.606Z,3128
2018-07-08T06:36:26.606Z,3064
2018-07-08T06:37:26.061Z,2992
2018-07-08T06:38:26.050Z,2892
2018-07-08T06:39:26.043Z,3388
2018-07-08T06:40:26.347Z,3868
2018-07-08T06:41:26.017Z,3744
2018-07-08T06:42:26.270Z,3800
2018-07-08T06:43:26.255Z,3752
2018-07-08T06:44:25.982Z,3048
2018-07-08T06:45:25.973Z,2436
2018-07-08T06:46:25.959Z,2364
2018-07-08T06:47:26.484Z,3228
2018-07-08T06:48:26.202Z,3696
2018-07-08T06:49:26.184Z,4608
2018-07-08T06:50:26.180Z,3204
2018-07-08T06:51:26.438Z,2752
2018-07-08T06:52:25.890Z,3048
2018-07-08T06:53:26.157Z,11852
2018-07-08T06:54:26.132Z,29344
2018-07-08T06:55:26.381Z,2088
2018-07-08T06:56:25.847Z,2188
2018-07-08T06:57:26.093Z,27584
2018-07-08T06:58:26.354Z,28192
2018-07-08T06:59:26.079Z,27936
2018-07-08T07:00:25.806Z,18752
2018-07-08T07:01:26.328Z,7736
2018-07-08T07:02:26.311Z,3000
2018-07-08T07:03:26.035Z,3032
2018-07-08T07:04:26.036Z,3352
2018-07-08T07:05:26.015Z,4588
2018-07-08T07:06:26.011Z,4796
2018-07-08T07:07:26.260Z,4404
2018-07-08T07:08:26.249Z,4868
2018-07-08T07:09:26.248Z,4804
2018-07-08T07:10:25.703Z,4068
2018-07-08T07:11:25.699Z,3292
2018-07-08T07:12:26.260Z,3496
2018-07-08T07:13:25.675Z,5308
2018-07-08T07:14:25.932Z,3348
2018-07-08T07:15:26.178Z,10524
2018-07-08T07:16:25.643Z,20896
2018-07-08T07:17:25.691Z,30720
2018-07-08T07:18:25.898Z,35712
2018-07-08T07:19:25.886Z,31392
2018-07-08T07:20:26.150Z,37408
2018-07-08T07:21:25.873Z,36384
2018-07-08T07:22:26.130Z,38560
2018-07-08T07:23:26.117Z,40928
2018-07-08T07:24:25.595Z,44064
2018-07-08T07:25:25.576Z,44128
2018-07-08T07:26:25.834Z,44384
2018-07-08T07:27:25.830Z,44224
2018-07-08T07:28:26.098Z,34752
2018-07-08T07:29:25.817Z,42752
2018-07-08T07:30:25.555Z,42496
2018-07-08T07:31:25.808Z,44480
2018-07-08T07:32:25.803Z,46368
2018-07-08T07:33:25.537Z,45216
2018-07-08T07:34:25.803Z,43872
2018-07-08T07:35:25.791Z,44128
2018-07-08T07:36:25.785Z,44256
2018-07-08T07:37:26.336Z,43456
2018-07-08T07:38:26.051Z,43808
2018-07-08T07:39:25.510Z,46400
2018-07-08T07:40:25.776Z,49600
2018-07-08T07:41:26.039Z,49760
2018-07-08T07:42:25.766Z,49280
2018-07-08T07:43:25.769Z,50624
2018-07-08T07:44:25.775Z,52192
2018-07-08T07:45:25.565Z,53312
2018-07-08T07:46:26.627Z,49632
2018-07-08T07:47:25.486Z,47776
2018-07-08T07:48:26.029Z,47136
2018-07-08T07:49:25.747Z,46400
2018-07-08T07:50:25.484Z,45952
2018-07-08T07:51:25.578Z,47456
2018-07-08T07:52:25.486Z,50240
2018-07-08T07:53:26.000Z,53472
2018-07-08T07:54:25.998Z,53568
2018-07-08T07:55:26.008Z,48960
2018-07-08T07:56:25.482Z,46560
2018-07-08T07:57:26.003Z,46912
2018-07-08T07:58:25.469Z,47488
2018-07-08T07:59:25.740Z,47360
2018-07-08T08:00:25.996Z,47552
2018-07-08T08:01:26.003Z,49024
2018-07-08T08:02:25.470Z,49824
2018-07-08T08:03:25.725Z,47808
2018-07-08T08:04:25.990Z,46080
2018-07-08T08:05:25.462Z,46048
2018-07-08T08:06:25.991Z,48960
2018-07-08T08:07:25.728Z,51424
2018-07-08T08:08:25.765Z,51136
2018-07-08T08:09:25.725Z,49568
2018-07-08T08:10:25.992Z,48768
2018-07-08T08:11:25.195Z,48960
2018-07-08T08:12:25.722Z,48032
2018-07-08T08:13:25.987Z,47104
2018-07-08T08:14:25.458Z,48640
2018-07-08T08:15:25.460Z,51008
2018-07-08T08:16:25.729Z,53952
2018-07-08T08:17:25.987Z,54752
2018-07-08T08:18:25.462Z,53600
2018-07-08T08:19:25.463Z,52608
2018-07-08T08:20:25.727Z,51648
2018-07-08T08:21:25.994Z,51136
2018-07-08T08:22:25.738Z,51392
2018-07-08T08:23:25.989Z,52928
2018-07-08T08:24:25.732Z,55232
2018-07-08T08:25:25.998Z,57792
2018-07-08T08:26:26.213Z,56320
2018-07-08T08:27:26.000Z,51776
2018-07-08T08:28:25.475Z,47872
2018-07-08T08:29:25.471Z,39680
2018-07-08T08:30:26.012Z,47552
2018-07-08T08:31:25.741Z,48928
2018-07-08T08:32:25.483Z,40128
2018-07-08T08:33:26.003Z,16532
2018-07-08T08:34:25.239Z,49792
2018-07-08T08:35:26.020Z,31584
2018-07-08T08:36:25.482Z,15072
2018-07-08T08:37:25.747Z,17760
2018-07-08T08:38:25.914Z,17696
2018-07-08T08:39:25.494Z,17088
2018-07-08T08:40:25.761Z,27776
2018-07-08T08:41:26.009Z,29152
2018-07-08T08:42:25.734Z,5912
2018-07-08T08:43:25.472Z,2944
2018-07-08T08:44:25.738Z,3748
2018-07-08T08:45:25.205Z,3524
2018-07-08T08:46:25.742Z,4200
2018-07-08T08:47:25.207Z,2992
2018-07-08T08:48:26.011Z,3024
2018-07-08T08:49:25.723Z,2992
2018-07-08T08:50:26.020Z,5500
2018-07-08T08:51:25.723Z,3200
2018-07-08T08:52:25.488Z,3220
2018-07-08T08:53:25.711Z,5476
2018-07-08T08:54:25.470Z,8120
2018-07-08T08:55:25.436Z,31872
2018-07-08T08:56:25.709Z,42560
2018-07-08T08:57:25.979Z,21312
2018-07-08T08:58:25.533Z,81184
2018-07-08T08:59:25.692Z,85024
2018-07-08T09:00:25.958Z,82560
2018-07-08T09:01:25.426Z,68256
2018-07-08T09:02:25.952Z,71648
2018-07-08T09:03:25.408Z,68096
2018-07-08T09:04:25.416Z,64288
2018-07-08T09:05:25.672Z,64352
2018-07-08T09:06:25.667Z,69696
2018-07-08T09:07:25.405Z,75584
2018-07-08T09:08:25.138Z,81664
2018-07-08T09:09:25.937Z,88032
2018-07-08T09:10:25.667Z,93696
2018-07-08T09:11:25.414Z,95488
2018-07-08T09:12:25.926Z,74752
2018-07-08T09:13:25.660Z,82624
2018-07-08T09:14:25.683Z,64704
2018-07-08T09:15:25.937Z,34560
2018-07-08T09:16:25.397Z,40256
2018-07-08T09:17:25.830Z,66880
2018-07-08T09:18:25.664Z,46304
2018-07-08T09:19:25.407Z,34752
2018-07-08T09:20:25.660Z,13376
2018-07-08T09:21:25.667Z,13104
2018-07-08T09:22:25.128Z,10640
2018-07-08T09:23:25.395Z,14512
2018-07-08T09:24:25.678Z,13264
2018-07-08T09:25:25.654Z,32736
2018-07-08T09:26:25.650Z,45856
2018-07-08T09:27:25.657Z,49056
2018-07-08T09:28:25.390Z,53120
2018-07-08T09:29:25.838Z,71136
2018-07-08T09:30:25.910Z,19040
2018-07-08T09:31:25.385Z,27360
2018-07-08T09:32:25.385Z,4868
2018-07-08T09:33:25.652Z,41984
2018-07-08T09:34:25.644Z,30400
2018-07-08T09:35:25.639Z,28576
2018-07-08T09:36:25.905Z,38656
2018-07-08T09:37:25.655Z,73376
2018-07-08T09:38:25.906Z,72736
2018-07-08T09:39:25.624Z,61824
2018-07-08T09:40:25.640Z,66592
2018-07-08T09:41:25.381Z,70016
2018-07-08T09:42:25.638Z,59392
2018-07-08T09:43:25.899Z,38752
2018-07-08T09:44:25.901Z,3680
2018-07-08T09:45:25.641Z,2928
2018-07-08T09:46:25.372Z,3400
2018-07-08T09:47:25.624Z,4336
2018-07-08T09:48:25.897Z,3004
2018-07-08T09:49:25.623Z,5860
2018-07-08T09:50:25.624Z,3488
2018-07-08T09:51:25.886Z,3560
2018-07-08T09:52:25.348Z,4484
2018-07-08T09:53:25.619Z,6672
2018-07-08T09:54:25.350Z,7216
2018-07-08T09:55:25.871Z,4288
2018-07-08T09:56:25.351Z,4032
2018-07-08T09:57:25.609Z,3540
2018-07-08T09:58:25.593Z,3948
2018-07-08T09:59:25.594Z,3612
2018-07-08T10:00:25.587Z,3580
2018-07-08T10:01:25.580Z,3640
2018-07-08T10:02:25.843Z,3520
2018-07-08T10:03:25.843Z,3624
2018-07-08T10:04:25.652Z,3712
2018-07-08T10:05:25.853Z,3756
2018-07-08T10:06:25.829Z,3752
2018-07-08T10:07:25.819Z,4536
2018-07-08T10:08:25.816Z,6608
2018-07-08T10:09:25.821Z,3760
2018-07-08T10:10:25.548Z,5496
2018-07-08T10:11:25.798Z,12724
2018-07-08T10:12:25.559Z,72832
2018-07-08T10:13:25.270Z,17164
2018-07-08T10:14:25.522Z,15168
2018-07-08T10:15:25.516Z,5012
2018-07-08T10:16:25.698Z,11424
2018-07-08T10:17:26.011Z,12080
2018-07-08T10:18:25.270Z,32192
2018-07-08T10:19:25.734Z,56960
2018-07-08T10:20:25.770Z,8488
2018-07-08T10:21:25.567Z,29248
2018-07-08T10:22:25.481Z,92800
2018-07-08T10:23:25.473Z,49984
2018-07-08T10:24:25.727Z,81088
2018-07-08T10:25:25.961Z,90048
2018-07-08T10:26:24.930Z,74912
2018-07-08T10:27:25.454Z,86784
2018-07-08T10:28:25.459Z,86464
2018-07-08T10:29:25.461Z,86560
2018-07-08T10:30:25.650Z,86016
2018-07-08T10:31:25.441Z,87840
2018-07-08T10:32:25.201Z,90368
2018-07-08T10:33:25.177Z,93984
2018-07-08T10:34:25.190Z,95424
2018-07-08T10:35:25.443Z,96416
2018-07-08T10:36:25.465Z,95680
2018-07-08T10:37:25.707Z,94080
2018-07-08T10:38:25.568Z,93344
2018-07-08T10:39:25.456Z,92768
2018-07-08T10:40:25.179Z,92096
2018-07-08T10:41:25.445Z,90496
2018-07-08T10:42:25.444Z,87840
2018-07-08T10:43:25.667Z,85504
2018-07-08T10:44:25.200Z,86080
2018-07-08T10:45:25.458Z,87968
2018-07-08T10:46:25.200Z,89952
2018-07-08T10:47:25.720Z,93152
2018-07-08T10:48:25.471Z,94848
2018-07-08T10:49:25.737Z,94848
2018-07-08T10:50:25.215Z,91232
2018-07-08T10:51:24.952Z,87584
2018-07-08T10:52:25.750Z,88992
2018-07-08T10:53:25.227Z,93280
2018-07-08T10:54:25.771Z,95008
2018-07-08T10:55:25.648Z,98784
2018-07-08T10:56:25.249Z,103968
2018-07-08T10:57:25.777Z,104544
2018-07-08T10:58:25.264Z,99104
2018-07-08T10:59:25.788Z,95776
2018-07-08T11:00:25.526Z,94336
2018-07-08T11:01:25.540Z,94624
2018-07-08T11:02:25.533Z,97344
2018-07-08T11:03:25.811Z,97056
2018-07-08T11:04:25.558Z,98112
2018-07-08T11:05:25.556Z,98976
2018-07-08T11:06:25.842Z,97280
2018-07-08T11:07:25.830Z,94400
2018-07-08T11:08:25.311Z,89024
2018-07-08T11:09:25.587Z,84512
2018-07-08T11:10:25.586Z,78400
2018-07-08T11:11:25.613Z,73568
2018-07-08T11:12:25.862Z,74912
2018-07-08T11:13:25.606Z,81824
2018-07-08T11:14:25.082Z,89664
2018-07-08T11:15:25.611Z,95712
2018-07-08T11:16:25.881Z,100896
2018-07-08T11:17:25.369Z,105088
2018-07-08T11:18:25.378Z,108384
2018-07-08T11:19:25.915Z,107072
2018-07-08T11:20:25.668Z,105152
2018-07-08T11:21:25.656Z,103616
2018-07-08T11:22:25.401Z,102496
2018-07-08T11:23:25.933Z,99712
2018-07-08T11:24:25.686Z,97056
2018-07-08T11:25:25.686Z,98112
2018-07-08T11:26:25.945Z,98528
2018-07-08T11:27:25.955Z,95616
2018-07-08T11:28:25.444Z,92128
2018-07-08T11:29:25.446Z,92352
2018-07-08T11:30:25.459Z,94304
2018-07-08T11:31:25.726Z,93856
2018-07-08T11:32:25.479Z,93856
2018-07-08T11:33:26.005Z,93568
2018-07-08T11:34:25.750Z,94464
2018-07-08T11:35:25.757Z,96064
2018-07-08T11:36:26.029Z,100128
2018-07-08T11:37:25.500Z,104288
2018-07-08T11:38:26.042Z,108672
2018-07-08T11:39:26.043Z,109408
2018-07-08T11:40:25.801Z,105696
2018-07-08T11:41:26.067Z,99040
2018-07-08T11:42:25.810Z,90496
2018-07-08T11:43:26.086Z,79712
2018-07-08T11:44:25.559Z,69888
2018-07-08T11:45:25.839Z,62048
2018-07-08T11:46:25.843Z,55936
2018-07-08T11:47:25.517Z,56000
2018-07-08T11:48:25.323Z,59904
2018-07-08T11:49:25.854Z,66976
2018-07-08T11:50:26.130Z,81600
2018-07-08T11:51:26.148Z,94656
2018-07-08T11:52:25.613Z,109024
2018-07-08T11:53:25.626Z,117600
2018-07-08T11:54:26.157Z,116480
2018-07-08T11:55:26.333Z,112896
2018-07-08T11:56:25.914Z,103872
2018-07-08T11:57:25.921Z,88544
2018-07-08T11:58:25.936Z,73088
2018-07-08T11:59:26.198Z,64256
2018-07-08T12:00:25.944Z,58848
2018-07-08T12:01:25.419Z,56032
2018-07-08T12:02:25.957Z,57984
2018-07-08T12:03:25.967Z,63008
2018-07-08T12:04:26.235Z,73856
2018-07-08T12:05:26.295Z,87328
2018-07-08T12:06:26.222Z,101024
2018-07-08T12:07:25.729Z,111424
2018-07-08T12:08:26.272Z,117472
2018-07-08T12:09:26.012Z,119744
2018-07-08T12:10:26.286Z,114368
2018-07-08T12:11:25.768Z,106880
2018-07-08T12:12:25.770Z,99296
2018-07-08T12:13:26.319Z,91744
2018-07-08T12:14:25.838Z,85664
2018-07-08T12:15:26.077Z,83456
2018-07-08T12:16:26.326Z,85184
2018-07-08T12:17:26.075Z,85888
2018-07-08T12:18:26.084Z,89600
2018-07-08T12:19:25.831Z,95808
2018-07-08T12:20:25.838Z,98048
2018-07-08T12:21:26.220Z,100960
2018-07-08T12:22:26.112Z,100736
2018-07-08T12:23:26.392Z,97760
2018-07-08T12:24:25.862Z,95136
2018-07-08T12:25:26.136Z,89536
2018-07-08T12:26:26.142Z,85760
2018-07-08T12:27:26.151Z,87200
2018-07-08T12:28:26.437Z,89920
2018-07-08T12:29:25.902Z,95456
2018-07-08T12:30:26.437Z,100064
2018-07-08T12:31:26.440Z,105856
2018-07-08T12:32:26.189Z,105952
2018-07-08T12:33:26.467Z,101504
2018-07-08T12:34:26.203Z,95232
2018-07-08T12:35:26.482Z,88896
2018-07-08T12:36:26.222Z,86528
2018-07-08T12:37:26.229Z,83840
2018-07-08T12:38:26.236Z,81984
2018-07-08T12:39:26.518Z,81696
2018-07-08T12:40:25.993Z,83776
2018-07-08T12:41:26.267Z,86656
2018-07-08T12:42:26.015Z,88512
2018-07-08T12:43:26.547Z,92704
2018-07-08T12:44:26.502Z,96800
2018-07-08T12:45:26.041Z,99424
2018-07-08T12:46:26.299Z,98816
2018-07-08T12:47:26.309Z,95168
2018-07-08T12:48:26.056Z,91776
2018-07-08T12:49:26.606Z,88832
2018-07-08T12:50:26.077Z,86976
2018-07-08T12:51:26.432Z,84576
2018-07-08T12:52:26.623Z,88832
2018-07-08T12:53:26.629Z,93920
2018-07-08T12:54:25.836Z,95264
2018-07-08T12:55:26.374Z,98432
2018-07-08T12:56:26.660Z,101504
2018-07-08T12:57:26.127Z,100288
2018-07-08T12:58:26.406Z,95168
2018-07-08T12:59:26.417Z,91552
2018-07-08T13:00:26.433Z,92768
2018-07-08T13:01:26.429Z,96000
2018-07-08T13:02:26.172Z,96064
2018-07-08T13:03:26.455Z,97888
2018-07-08T13:04:26.457Z,98944
2018-07-08T13:05:26.197Z,100544
2018-07-08T13:06:26.840Z,98784
2018-07-08T13:07:26.476Z,96000
2018-07-08T13:08:26.504Z,94848
2018-07-08T13:09:26.496Z,92800
2018-07-08T13:10:26.501Z,94048
2018-07-08T13:11:26.776Z,97440
2018-07-08T13:12:26.267Z,101952
2018-07-08T13:13:26.527Z,106368
2018-07-08T13:14:26.533Z,110752
2018-07-08T13:15:26.800Z,112480
2018-07-08T13:16:26.286Z,109376
2018-07-08T13:17:26.292Z,105152
2018-07-08T13:18:26.306Z,102016
2018-07-08T13:19:26.567Z,95296
2018-07-08T13:20:26.847Z,88800
2018-07-08T13:21:26.863Z,86112
2018-07-08T13:22:26.863Z,87520
2018-07-08T13:23:26.078Z,87584
2018-07-08T13:24:26.877Z,80896
2018-07-08T13:25:26.619Z,71872
2018-07-08T13:26:26.770Z,66400
2018-07-08T13:27:26.636Z,65920